Time;durP1;ratioP1;P1;durP2;ratioP2;P2;SDS_P1;SDS_P2;PMS_P1;PMS_P2;Temp;Humidity;BMP_temperature;BMP_pressure;BME280_temperature;BME280_humidity;BME280_pressure;Samples;Min_cycle;Max_cycle;Signal;HPM_P1;HPM_P2
2023/03/26 00:02:22;;;;;;;;;;;19.90;51.10;;;;;;5004943;28;19924;-75
2023/03/26 00:04:48;;;;;;;;;;;19.80;51.10;;;;;;5006666;28;19924;-75
2023/03/26 00:07:14;;;;;;;;;;;19.80;51.20;;;;;;5013973;27;20071;-75
2023/03/26 00:09:40;;;;;;;;;;;19.80;51.20;;;;;;4996678;28;20402;-75
2023/03/26 00:12:05;;;;;;;;;;;19.70;51.10;;;;;;5005702;28;19964;-75
2023/03/26 00:14:31;;;;;;;;;;;19.70;51.20;;;;;;4996755;28;19917;-75
2023/03/26 00:16:56;;;;;;;;;;;19.70;51.20;;;;;;5009507;28;19918;-74
2023/03/26 00:19:22;;;;;;;;;;;19.70;51.20;;;;;;5006722;28;20290;-75
2023/03/26 00:21:47;;;;;;;;;;;19.70;51.10;;;;;;5010304;28;19919;-75
2023/03/26 00:24:16;;;;;;;;;;;19.60;51.10;;;;;;4997728;28;20372;-75
2023/03/26 00:26:41;;;;;;;;;;;19.70;51.10;;;;;;5007129;28;19913;-75
2023/03/26 00:29:08;;;;;;;;;;;19.60;51.10;;;;;;5024033;28;20272;-75
2023/03/26 00:31:34;;;;;;;;;;;19.60;50.90;;;;;;5023172;28;19924;-76
2023/03/26 00:34:02;;;;;;;;;;;19.60;51.10;;;;;;5019678;28;19917;-75
2023/03/26 00:36:27;;;;;;;;;;;19.60;51.00;;;;;;5027931;28;20000;-75
2023/03/26 00:38:53;;;;;;;;;;;19.60;51.10;;;;;;5000307;28;20376;-75
2023/03/26 00:41:23;;;;;;;;;;;19.50;51.10;;;;;;5013158;28;19928;-75
2023/03/26 00:43:50;;;;;;;;;;;19.50;51.30;;;;;;5042954;28;20008;-76
2023/03/26 00:46:16;;;;;;;;;;;19.40;51.20;;;;;;5035713;28;20062;-75
2023/03/26 00:48:42;;;;;;;;;;;19.40;51.40;;;;;;4994459;28;20424;-75
2023/03/26 00:51:11;;;;;;;;;;;19.40;51.40;;;;;;5004409;28;19914;-75
2023/03/26 00:53:37;;;;;;;;;;;19.40;51.40;;;;;;5020713;28;19917;-75
2023/03/26 00:56:03;;;;;;;;;;;19.30;51.40;;;;;;5029091;28;19913;-76
2023/03/26 00:58:29;;;;;;;;;;;19.30;51.60;;;;;;5013722;28;20419;-75
2023/03/26 01:00:56;;;;;;;;;;;19.20;51.50;;;;;;5012317;28;19998;-75
2023/03/26 01:03:23;;;;;;;;;;;19.20;51.40;;;;;;5010033;28;19929;-75
2023/03/26 01:05:54;;;;;;;;;;;19.20;51.70;;;;;;5011207;28;19913;-75
2023/03/26 01:08:25;;;;;;;;;;;19.20;51.70;;;;;;5004554;28;19955;-75
2023/03/26 01:10:51;;;;;;;;;;;19.30;51.80;;;;;;5018853;28;19925;-75
2023/03/26 01:13:20;;;;;;;;;;;19.30;51.80;;;;;;5024167;27;20748;-75
2023/03/26 01:15:49;;;;;;;;;;;19.40;51.80;;;;;;5022602;28;19914;-75
2023/03/26 01:18:19;;;;;;;;;;;19.70;51.40;;;;;;5101948;27;19931;-76
2023/03/26 01:20:45;;;;;;;;;;;19.90;50.90;;;;;;5015505;28;19918;-76
2023/03/26 01:23:11;;;;;;;;;;;20.10;50.40;;;;;;5001130;28;19974;-75
2023/03/26 01:25:37;;;;;;;;;;;20.40;50.80;;;;;;5015069;28;19910;-75
2023/03/26 01:28:04;;;;;;;;;;;20.70;49.60;;;;;;5037221;28;19924;-76
2023/03/26 01:30:33;;;;;;;;;;;21.10;48.80;;;;;;5039845;28;20000;-75
2023/03/26 01:33:12;;;;;;;;;;;21.50;47.80;;;;;;5029938;28;20039;-75
2023/03/26 01:35:40;;;;;;;;;;;22.00;47.00;;;;;;5013909;28;20396;-76
2023/03/26 01:38:21;;;;;;;;;;;22.40;46.40;;;;;;5029665;28;19909;-75
2023/03/26 01:40:48;;;;;;;;;;;22.60;45.90;;;;;;5020079;28;19913;-75
2023/03/26 01:43:20;;;;;;;;;;;22.80;45.40;;;;;;5009638;28;20401;-76
2023/03/26 01:45:46;;;;;;;;;;;23.00;45.20;;;;;;5008825;28;20271;-75
2023/03/26 01:48:11;;;;;;;;;;;23.10;44.80;;;;;;5011691;28;19918;-75
2023/03/26 01:50:37;;;;;;;;;;;23.00;45.00;;;;;;5013409;28;19944;-75
2023/03/26 01:53:02;;;;;;;;;;;22.80;45.30;;;;;;5018988;28;20068;-76
2023/03/26 01:55:32;;;;;;;;;;;22.60;45.70;;;;;;4992726;28;19910;-76
2023/03/26 01:58:01;;;;;;;;;;;22.50;45.90;;;;;;4994290;28;19913;-76
2023/03/26 02:00:27;;;;;;;;;;;22.30;46.40;;;;;;5013268;28;19914;-76
2023/03/26 02:02:58;;;;;;;;;;;22.10;46.50;;;;;;5016694;28;19936;-75
2023/03/26 02:05:36;;;;;;;;;;;21.90;47.00;;;;;;5016804;28;19921;-76
2023/03/26 02:08:01;;;;;;;;;;;21.80;47.00;;;;;;5013872;28;19913;-76
2023/03/26 02:10:32;;;;;;;;;;;21.70;47.20;;;;;;5012856;28;20044;-75
2023/03/26 02:12:57;;;;;;;;;;;21.70;47.30;;;;;;5013816;28;20921;-75
2023/03/26 02:15:23;;;;;;;;;;;21.60;47.40;;;;;;5012041;28;19959;-76
2023/03/26 02:17:48;;;;;;;;;;;21.60;47.50;;;;;;5013385;28;20333;-75
2023/03/26 02:20:14;;;;;;;;;;;21.60;47.40;;;;;;5000827;28;19913;-75
2023/03/26 02:22:40;;;;;;;;;;;21.50;47.40;;;;;;5014331;28;20321;-76
2023/03/26 02:25:09;;;;;;;;;;;21.50;47.80;;;;;;5019522;28;19913;-76
2023/03/26 02:27:35;;;;;;;;;;;21.40;47.50;;;;;;5024564;28;19966;-76
2023/03/26 02:30:01;;;;;;;;;;;21.60;47.20;;;;;;5008090;28;20340;-76
2023/03/26 02:32:26;;;;;;;;;;;22.00;46.90;;;;;;5011854;28;19909;-76
2023/03/26 02:34:52;;;;;;;;;;;22.20;46.40;;;;;;5008435;28;20299;-75
2023/03/26 02:37:17;;;;;;;;;;;22.20;46.30;;;;;;5018340;28;19966;-75
2023/03/26 02:39:43;;;;;;;;;;;22.30;46.30;;;;;;5027225;28;19966;-76
2023/03/26 02:42:09;;;;;;;;;;;22.40;45.90;;;;;;5021224;28;20327;-76
2023/03/26 02:44:34;;;;;;;;;;;22.40;46.10;;;;;;5011082;28;19913;-76
2023/03/26 02:46:59;;;;;;;;;;;22.20;46.20;;;;;;5008506;28;19917;-76
2023/03/26 02:49:26;;;;;;;;;;;22.10;46.20;;;;;;5015440;28;19909;-76
2023/03/26 02:51:55;;;;;;;;;;;22.10;46.30;;;;;;5017037;28;20395;-76
2023/03/26 02:54:20;;;;;;;;;;;22.00;46.30;;;;;;5012131;28;19917;-76
2023/03/26 02:56:46;;;;;;;;;;;21.80;46.70;;;;;;5008988;28;19914;-76
2023/03/26 02:59:12;;;;;;;;;;;21.70;47.00;;;;;;5012787;28;19913;-76
2023/03/26 03:01:41;;;;;;;;;;;21.60;47.10;;;;;;5008480;28;20309;-75
2023/03/26 03:04:10;;;;;;;;;;;21.60;47.00;;;;;;5011772;28;19917;-75
2023/03/26 03:06:37;;;;;;;;;;;21.60;47.20;;;;;;4995073;28;19917;-76
2023/03/26 03:09:03;;;;;;;;;;;21.70;47.20;;;;;;5004903;28;19952;-75
2023/03/26 03:11:29;;;;;;;;;;;21.80;46.80;;;;;;5021757;28;20344;-76
2023/03/26 03:13:55;;;;;;;;;;;21.90;46.80;;;;;;4996189;28;19977;-76
2023/03/26 03:16:20;;;;;;;;;;;22.20;46.60;;;;;;5008910;28;19913;-75
2023/03/26 03:18:53;;;;;;;;;;;22.30;46.30;;;;;;5001032;28;20292;-75
2023/03/26 03:21:19;;;;;;;;;;;22.40;46.20;;;;;;5008144;28;19917;-75
2023/03/26 03:23:44;;;;;;;;;;;22.50;45.90;;;;;;5025604;28;19992;-76
2023/03/26 03:26:14;;;;;;;;;;;22.50;45.70;;;;;;5027563;28;20028;-76
2023/03/26 03:28:40;;;;;;;;;;;22.50;45.70;;;;;;5013158;28;19909;-76
2023/03/26 03:31:07;;;;;;;;;;;22.30;45.60;;;;;;5021969;28;20273;-76
2023/03/26 03:33:33;;;;;;;;;;;22.10;46.10;;;;;;5016926;28;19922;-76
2023/03/26 03:35:58;;;;;;;;;;;21.90;46.40;;;;;;5002732;28;19921;-76
2023/03/26 03:38:24;;;;;;;;;;;21.70;46.90;;;;;;4997436;28;20096;-76
2023/03/26 03:40:50;;;;;;;;;;;21.70;47.00;;;;;;5015201;28;19937;-75
2023/03/26 03:43:15;;;;;;;;;;;21.70;47.10;;;;;;5013421;28;19936;-76
2023/03/26 03:45:41;;;;;;;;;;;21.60;46.90;;;;;;5004627;28;19998;-76
2023/03/26 03:48:06;;;;;;;;;;;21.60;47.00;;;;;;5014262;28;19913;-75
2023/03/26 03:50:32;;;;;;;;;;;21.70;47.00;;;;;;4998550;28;19966;-75
2023/03/26 03:52:58;;;;;;;;;;;22.00;46.50;;;;;;5015295;28;20450;-76
2023/03/26 03:55:26;;;;;;;;;;;22.30;46.00;;;;;;5000100;28;19920;-75
2023/03/26 03:57:52;;;;;;;;;;;22.50;45.60;;;;;;5018173;28;20431;-75
2023/03/26 04:00:18;;;;;;;;;;;22.60;45.20;;;;;;5011271;28;19922;-75
2023/03/26 04:02:45;;;;;;;;;;;22.70;45.10;;;;;;5039489;28;20326;-76
2023/03/26 04:05:10;;;;;;;;;;;22.70;45.30;;;;;;5011618;28;20408;-76
2023/03/26 04:07:36;;;;;;;;;;;22.70;45.80;;;;;;5008736;28;19917;-75
2023/03/26 04:10:02;;;;;;;;;;;22.60;45.20;;;;;;5023707;28;20016;-76
2023/03/26 04:12:27;;;;;;;;;;;22.50;45.50;;;;;;5039504;28;19918;-76
2023/03/26 04:14:53;;;;;;;;;;;22.30;45.80;;;;;;5010594;28;20317;-75
2023/03/26 04:17:20;;;;;;;;;;;22.10;46.10;;;;;;5016051;28;19998;-75
2023/03/26 04:19:46;;;;;;;;;;;22.10;46.10;;;;;;5005766;28;19910;-75
2023/03/26 04:22:11;;;;;;;;;;;21.90;46.30;;;;;;5000759;28;19925;-76
2023/03/26 04:24:38;;;;;;;;;;;21.90;46.30;;;;;;5009175;28;20388;-75
2023/03/26 04:27:05;;;;;;;;;;;21.80;46.70;;;;;;5007908;28;19913;-75
2023/03/26 04:29:32;;;;;;;;;;;21.60;46.80;;;;;;5005302;28;20010;-75
2023/03/26 04:32:05;;;;;;;;;;;21.60;46.90;;;;;;5021144;28;20400;-75
2023/03/26 04:34:30;;;;;;;;;;;21.70;46.70;;;;;;5020405;28;19916;-76
2023/03/26 04:36:57;;;;;;;;;;;21.70;46.60;;;;;;5027577;28;20332;-75
2023/03/26 04:39:28;;;;;;;;;;;21.80;46.70;;;;;;5019860;28;19929;-75
2023/03/26 04:41:54;;;;;;;;;;;21.90;46.60;;;;;;5015345;28;20465;-76
2023/03/26 04:44:21;;;;;;;;;;;22.00;46.20;;;;;;5011833;28;19945;-76
2023/03/26 04:46:47;;;;;;;;;;;22.20;46.00;;;;;;5014206;28;20397;-76
2023/03/26 04:49:13;;;;;;;;;;;22.40;45.50;;;;;;5012461;28;19917;-76
2023/03/26 04:51:40;;;;;;;;;;;22.60;45.30;;;;;;5007705;28;19917;-76
2023/03/26 04:54:06;;;;;;;;;;;22.70;45.00;;;;;;4999843;28;20008;-76
2023/03/26 04:56:38;;;;;;;;;;;22.70;44.80;;;;;;4998180;28;20329;-75
2023/03/26 04:59:03;;;;;;;;;;;22.70;45.20;;;;;;5009627;28;20017;-75
2023/03/26 05:01:29;;;;;;;;;;;22.60;45.00;;;;;;5001981;28;19917;-76
2023/03/26 05:03:55;;;;;;;;;;;22.40;45.40;;;;;;5001217;28;19914;-75
2023/03/26 05:06:21;;;;;;;;;;;22.20;45.60;;;;;;5008336;28;19917;-75
2023/03/26 05:08:46;;;;;;;;;;;22.10;45.70;;;;;;5002243;28;19946;-76
2023/03/26 05:11:12;;;;;;;;;;;22.10;45.90;;;;;;5001333;28;20228;-75
2023/03/26 05:13:37;;;;;;;;;;;21.90;46.00;;;;;;5015651;28;20427;-76
2023/03/26 05:16:03;;;;;;;;;;;21.70;46.30;;;;;;5014972;28;19926;-76
2023/03/26 05:18:31;;;;;;;;;;;21.50;46.70;;;;;;4998146;28;19928;-76
2023/03/26 05:20:56;;;;;;;;;;;21.40;47.00;;;;;;5010912;28;19913;-76
2023/03/26 05:23:22;;;;;;;;;;;21.30;46.90;;;;;;5011245;28;19996;-75
2023/03/26 05:25:47;;;;;;;;;;;21.40;46.70;;;;;;5008174;28;19924;-75
2023/03/26 05:28:13;;;;;;;;;;;21.70;46.60;;;;;;4998976;28;20204;-75
2023/03/26 05:30:38;;;;;;;;;;;22.00;46.00;;;;;;5001845;28;19913;-75
2023/03/26 05:33:04;;;;;;;;;;;22.30;45.40;;;;;;5013181;28;19913;-75
2023/03/26 05:35:29;;;;;;;;;;;22.60;45.10;;;;;;5016244;28;20371;-75
2023/03/26 05:37:55;;;;;;;;;;;22.80;44.40;;;;;;5018397;28;19921;-76
2023/03/26 05:40:21;;;;;;;;;;;22.90;44.30;;;;;;5009578;28;19968;-76
2023/03/26 05:42:46;;;;;;;;;;;22.90;44.30;;;;;;5011856;28;19917;-75
2023/03/26 05:45:12;;;;;;;;;;;22.90;44.30;;;;;;5000223;28;19914;-75
2023/03/26 05:47:37;;;;;;;;;;;22.60;44.50;;;;;;5028751;28;20037;-75
2023/03/26 05:50:03;;;;;;;;;;;22.50;44.70;;;;;;5040926;28;19993;-75
2023/03/26 05:52:29;;;;;;;;;;;22.30;45.00;;;;;;4998788;28;19922;-75
2023/03/26 05:54:54;;;;;;;;;;;22.10;45.50;;;;;;5003531;28;19920;-75
2023/03/26 05:57:21;;;;;;;;;;;21.90;46.00;;;;;;5000538;28;19913;-75
2023/03/26 05:59:46;;;;;;;;;;;21.70;46.00;;;;;;5003313;28;20326;-75
2023/03/26 06:02:12;;;;;;;;;;;21.60;46.20;;;;;;5015060;28;19919;-75
2023/03/26 06:04:39;;;;;;;;;;;21.60;46.10;;;;;;5014042;28;19917;-75
2023/03/26 06:07:08;;;;;;;;;;;21.60;46.30;;;;;;5013931;28;19919;-75
2023/03/26 06:09:37;;;;;;;;;;;21.50;46.30;;;;;;4999211;28;20298;-75
2023/03/26 06:12:06;;;;;;;;;;;21.50;46.80;;;;;;5000501;28;19925;-75
2023/03/26 06:14:31;;;;;;;;;;;21.60;46.50;;;;;;5005683;28;19914;-76
2023/03/26 06:16:57;;;;;;;;;;;21.80;45.90;;;;;;5015869;28;20385;-75
2023/03/26 06:19:22;;;;;;;;;;;22.10;45.60;;;;;;5016035;28;20058;-76
2023/03/26 06:21:48;;;;;;;;;;;22.30;45.30;;;;;;5009723;28;19973;-75
2023/03/26 06:24:15;;;;;;;;;;;22.50;44.80;;;;;;5010958;28;20340;-75
2023/03/26 06:26:41;;;;;;;;;;;22.80;44.50;;;;;;5033048;28;19916;-75
2023/03/26 06:29:06;;;;;;;;;;;22.80;44.10;;;;;;5020836;28;20354;-76
2023/03/26 06:31:31;;;;;;;;;;;22.80;44.20;;;;;;5000298;28;20004;-75
2023/03/26 06:33:57;;;;;;;;;;;22.70;44.40;;;;;;5029709;28;19948;-75
2023/03/26 06:36:22;;;;;;;;;;;22.60;44.50;;;;;;5028043;28;20320;-76
2023/03/26 06:38:48;;;;;;;;;;;22.30;45.00;;;;;;5009403;28;20340;-76
2023/03/26 06:41:13;;;;;;;;;;;22.20;45.40;;;;;;5006615;28;19961;-76
2023/03/26 06:43:39;;;;;;;;;;;22.00;45.50;;;;;;5020361;28;19962;-75
2023/03/26 06:46:04;;;;;;;;;;;22.00;45.50;;;;;;5007951;28;19917;-75
2023/03/26 06:48:30;;;;;;;;;;;21.90;45.70;;;;;;5009421;28;19955;-75
2023/03/26 06:50:55;;;;;;;;;;;21.70;45.80;;;;;;5008464;28;20291;-75
2023/03/26 06:53:21;;;;;;;;;;;21.50;46.50;;;;;;5005382;28;19921;-76
2023/03/26 06:55:46;;;;;;;;;;;21.30;46.50;;;;;;4996467;28;19917;-75
2023/03/26 06:58:12;;;;;;;;;;;21.30;46.70;;;;;;5011785;28;19924;-75
2023/03/26 07:00:37;;;;;;;;;;;21.20;47.20;;;;;;5016498;28;19913;-75
2023/03/26 07:03:03;;;;;;;;;;;21.30;47.10;;;;;;5017205;28;19926;-75
2023/03/26 07:05:28;;;;;;;;;;;21.50;46.60;;;;;;5015913;28;19915;-75
2023/03/26 07:07:54;;;;;;;;;;;21.70;46.10;;;;;;5016726;28;19991;-75
2023/03/26 07:10:19;;;;;;;;;;;22.10;45.40;;;;;;5005829;28;19932;-76
2023/03/26 07:12:45;;;;;;;;;;;22.30;44.50;;;;;;5008460;28;20062;-75
2023/03/26 07:15:10;;;;;;;;;;;22.60;44.10;;;;;;5016118;28;19929;-75
2023/03/26 07:17:36;;;;;;;;;;;22.60;44.00;;;;;;5004670;28;19920;-76
2023/03/26 07:20:02;;;;;;;;;;;22.60;44.10;;;;;;5016291;28;20839;-76
2023/03/26 07:22:28;;;;;;;;;;;22.40;44.10;;;;;;5017281;28;19928;-76
2023/03/26 07:24:53;;;;;;;;;;;22.30;44.80;;;;;;5027259;28;19917;-75
2023/03/26 07:27:31;;;;;;;;;;;22.20;44.00;;;;;;5019585;28;19918;-75
2023/03/26 07:29:58;;;;;;;;;;;22.20;43.80;;;;;;5010371;28;19924;-75
2023/03/26 07:32:35;;;;;;;;;;;22.10;43.90;;;;;;5014986;27;19921;-76
2023/03/26 07:35:04;;;;;;;;;;;21.90;44.30;;;;;;5019774;28;19917;-75
2023/03/26 07:37:49;;;;;;;;;;;21.80;44.60;;;;;;5007273;28;19945;-75
2023/03/26 07:40:33;;;;;;;;;;;21.80;44.80;;;;;;5009261;28;19918;-75
2023/03/26 07:43:04;;;;;;;;;;;21.70;45.00;;;;;;5013806;28;19952;-76
2023/03/26 07:45:32;;;;;;;;;;;21.60;45.20;;;;;;5015374;28;19974;-75
2023/03/26 07:47:58;;;;;;;;;;;21.50;45.50;;;;;;5005418;28;19920;-75
2023/03/26 07:50:24;;;;;;;;;;;21.50;45.40;;;;;;5007011;28;19929;-76
2023/03/26 07:52:50;;;;;;;;;;;21.30;45.50;;;;;;5000647;28;19917;-76
2023/03/26 07:55:16;;;;;;;;;;;21.20;46.10;;;;;;5018547;28;20051;-76
2023/03/26 07:57:46;;;;;;;;;;;21.20;45.90;;;;;;5013001;28;19966;-75
2023/03/26 08:00:17;;;;;;;;;;;21.30;45.70;;;;;;5018321;28;19959;-75
2023/03/26 08:02:43;;;;;;;;;;;21.50;45.70;;;;;;5019851;28;19925;-76
2023/03/26 08:05:17;;;;;;;;;;;21.80;45.10;;;;;;5037332;28;19909;-75
2023/03/26 08:07:43;;;;;;;;;;;22.10;44.60;;;;;;5008216;28;19913;-76
2023/03/26 08:10:37;;;;;;;;;;;22.30;44.20;;;;;;5011595;28;20270;-75
2023/03/26 08:13:06;;;;;;;;;;;22.50;44.00;;;;;;5045217;28;20007;-75
2023/03/26 08:15:33;;;;;;;;;;;22.60;43.50;;;;;;5018054;28;19916;-76
2023/03/26 08:18:01;;;;;;;;;;;22.60;43.40;;;;;;5037906;28;20371;-75
2023/03/26 08:20:37;;;;;;;;;;;22.50;43.60;;;;;;5011278;28;19909;-76
2023/03/26 08:23:06;;;;;;;;;;;22.40;43.70;;;;;;5022213;28;19913;-75
2023/03/26 08:25:33;;;;;;;;;;;22.20;44.30;;;;;;5010262;28;19921;-76
2023/03/26 08:27:58;;;;;;;;;;;22.00;44.40;;;;;;5011735;28;20468;-76
2023/03/26 08:30:24;;;;;;;;;;;21.90;44.70;;;;;;5018893;28;20000;-76
2023/03/26 08:32:55;;;;;;;;;;;21.70;44.80;;;;;;5008051;28;20314;-76
2023/03/26 08:35:20;;;;;;;;;;;21.70;44.90;;;;;;5021205;28;20332;-76
2023/03/26 08:37:45;;;;;;;;;;;21.70;45.20;;;;;;5013074;28;19910;-75
2023/03/26 08:40:11;;;;;;;;;;;21.60;45.50;;;;;;5010364;28;20405;-75
2023/03/26 08:42:41;;;;;;;;;;;21.50;45.70;;;;;;5011566;28;19913;-76
2023/03/26 08:45:13;;;;;;;;;;;21.60;45.70;;;;;;5005966;28;19928;-76
2023/03/26 08:47:59;;;;;;;;;;;21.50;45.40;;;;;;4996333;28;20271;-76
2023/03/26 08:50:24;;;;;;;;;;;21.60;45.50;;;;;;5010082;28;20024;-76
2023/03/26 08:53:02;;;;;;;;;;;21.70;45.00;;;;;;5012373;28;20001;-76
2023/03/26 08:55:37;;;;;;;;;;;21.90;44.90;;;;;;5078446;27;20314;-76
2023/03/26 08:58:07;;;;;;;;;;;21.90;44.90;;;;;;5073937;27;19909;-75
2023/03/26 09:00:37;;;;;;;;;;;22.00;44.90;;;;;;5048258;28;19921;-75
2023/03/26 09:03:05;;;;;;;;;;;22.00;44.80;;;;;;5025475;28;19952;-76
2023/03/26 09:05:50;;;;;;;;;;;22.20;44.50;;;;;;5021162;28;19917;-75
2023/03/26 09:08:33;;;;;;;;;;;22.10;44.80;;;;;;5013834;28;19921;-76
2023/03/26 09:11:15;;;;;;;;;;;22.00;44.90;;;;;;5017377;28;20016;-75
2023/03/26 09:13:46;;;;;;;;;;;22.10;44.90;;;;;;5006910;28;19918;-75
2023/03/26 09:16:30;;;;;;;;;;;22.00;44.90;;;;;;5004537;28;19913;-76
2023/03/26 09:18:57;;;;;;;;;;;21.80;45.30;;;;;;5012937;28;19962;-75
2023/03/26 09:21:30;;;;;;;;;;;21.70;45.80;;;;;;5030985;27;20425;-75
2023/03/26 09:24:17;;;;;;;;;;;21.60;45.60;;;;;;5021592;28;20054;-75
2023/03/26 09:26:50;;;;;;;;;;;21.50;45.70;;;;;;5001456;28;19914;-75
2023/03/26 09:29:30;;;;;;;;;;;21.60;45.80;;;;;;5014020;28;19917;-75
2023/03/26 09:32:08;;;;;;;;;;;21.60;45.70;;;;;;5029941;28;20023;-76
2023/03/26 09:34:33;;;;;;;;;;;21.50;45.70;;;;;;4998644;28;20294;-76
2023/03/26 09:37:05;;;;;;;;;;;21.40;45.80;;;;;;5013379;28;19917;-76
2023/03/26 09:39:48;;;;;;;;;;;21.50;45.70;;;;;;5017293;28;19914;-76
2023/03/26 09:42:23;;;;;;;;;;;21.50;45.70;;;;;;5012532;28;19921;-76
2023/03/26 09:44:48;;;;;;;;;;;21.50;45.70;;;;;;5015608;28;19967;-76
2023/03/26 09:47:14;;;;;;;;;;;21.40;46.00;;;;;;5015410;28;20355;-76
2023/03/26 09:49:39;;;;;;;;;;;21.30;46.50;;;;;;5012306;28;20323;-76
2023/03/26 09:52:25;;;;;;;;;;;21.10;46.60;;;;;;5013043;28;20294;-76
2023/03/26 09:55:24;;;;;;;;;;;21.10;46.70;;;;;;5011911;28;20332;-76
2023/03/26 09:58:09;;;;;;;;;;;21.10;47.00;;;;;;5035292;28;19926;-77
2023/03/26 10:00:43;;;;;;;;;;;21.10;46.90;;;;;;5020814;28;19914;-76
2023/03/26 10:03:27;;;;;;;;;;;21.10;47.40;;;;;;5010543;28;20004;-76
2023/03/26 10:06:10;;;;;;;;;;;21.10;47.10;;;;;;5012610;28;19917;-76
2023/03/26 10:08:36;;;;;;;;;;;21.20;46.80;;;;;;5023873;28;19918;-77
2023/03/26 10:11:04;;;;;;;;;;;21.10;46.90;;;;;;5020351;28;20009;-76
2023/03/26 10:13:33;;;;;;;;;;;21.10;47.10;;;;;;5009114;28;19921;-76
2023/03/26 10:16:17;;;;;;;;;;;21.20;47.50;;;;;;5024385;28;19917;-76
2023/03/26 10:18:58;;;;;;;;;;;21.20;47.50;;;;;;5022820;28;19913;-75
2023/03/26 10:21:42;;;;;;;;;;;21.20;46.90;;;;;;5010004;28;20013;-73
2023/03/26 10:24:08;;;;;;;;;;;21.10;46.60;;;;;;5025815;28;19937;-74
2023/03/26 10:26:40;;;;;;;;;;;21.10;46.00;;;;;;5031174;28;20266;-75
2023/03/26 10:29:10;;;;;;;;;;;21.20;44.40;;;;;;5014545;28;19935;-75
2023/03/26 10:31:35;;;;;;;;;;;21.20;44.70;;;;;;5023876;28;19913;-75
2023/03/26 10:34:20;;;;;;;;;;;21.10;43.60;;;;;;5023550;28;19922;-73
2023/03/26 10:36:46;;;;;;;;;;;21.00;42.70;;;;;;5026543;27;20424;-78
2023/03/26 10:39:11;;;;;;;;;;;21.20;45.30;;;;;;5016211;28;19913;-74
2023/03/26 10:41:42;;;;;;;;;;;21.10;45.10;;;;;;5024758;28;20011;-75
2023/03/26 10:44:16;;;;;;;;;;;21.00;45.30;;;;;;5009777;28;19914;-73
2023/03/26 10:46:49;;;;;;;;;;;21.10;42.90;;;;;;5018633;28;19914;-72
2023/03/26 10:49:18;;;;;;;;;;;21.30;41.30;;;;;;5012757;28;19913;-73
2023/03/26 10:51:50;;;;;;;;;;;21.20;41.60;;;;;;5012647;28;19965;-72
2023/03/26 10:54:34;;;;;;;;;;;21.00;42.10;;;;;;5031414;28;19963;-72
2023/03/26 10:56:59;;;;;;;;;;;20.90;40.70;;;;;;5023773;28;20394;-72
2023/03/26 10:59:26;;;;;;;;;;;21.00;40.50;;;;;;5014149;28;19921;-73
2023/03/26 11:02:12;;;;;;;;;;;21.00;40.20;;;;;;5014002;27;20374;-74
2023/03/26 11:04:52;;;;;;;;;;;21.00;40.70;;;;;;5002357;28;19914;-74
2023/03/26 11:07:20;;;;;;;;;;;20.90;40.70;;;;;;5013145;28;20029;-74
2023/03/26 11:10:04;;;;;;;;;;;20.90;40.40;;;;;;5021754;28;19920;-74
2023/03/26 11:12:46;;;;;;;;;;;20.90;40.70;;;;;;5018145;28;19926;-74
2023/03/26 11:15:17;;;;;;;;;;;20.90;41.00;;;;;;5005776;28;19924;-73
2023/03/26 11:17:46;;;;;;;;;;;21.00;40.90;;;;;;5020088;28;19917;-74
2023/03/26 11:20:16;;;;;;;;;;;21.00;40.40;;;;;;5003793;28;20290;-73
2023/03/26 11:23:17;;;;;;;;;;;21.10;40.50;;;;;;5022500;28;20319;-74
2023/03/26 11:25:57;;;;;;;;;;;21.10;39.90;;;;;;5074255;28;20751;-74
2023/03/26 11:28:26;;;;;;;;;;;21.10;40.70;;;;;;5018261;28;19959;-74
2023/03/26 11:30:52;;;;;;;;;;;21.10;39.90;;;;;;5006113;28;19957;-74
2023/03/26 11:33:22;;;;;;;;;;;21.20;39.30;;;;;;5023054;28;20508;-74
2023/03/26 11:35:48;;;;;;;;;;;21.20;39.30;;;;;;5022440;28;19917;-74
2023/03/26 11:38:36;;;;;;;;;;;21.20;39.70;;;;;;4994630;28;19924;-74
2023/03/26 11:41:02;;;;;;;;;;;21.20;38.70;;;;;;5019557;28;19913;-74
2023/03/26 11:43:28;;;;;;;;;;;21.20;38.90;;;;;;5002898;28;19939;-74
2023/03/26 11:45:54;;;;;;;;;;;21.20;38.40;;;;;;5010042;28;20001;-74
2023/03/26 11:48:22;;;;;;;;;;;21.20;39.00;;;;;;5028250;28;20041;-74
2023/03/26 11:50:48;;;;;;;;;;;21.10;39.00;;;;;;5024854;27;19920;-74
2023/03/26 11:53:15;;;;;;;;;;;21.00;38.60;;;;;;5014461;28;20482;-74
2023/03/26 11:55:43;;;;;;;;;;;21.00;38.60;;;;;;5016823;28;19913;-73
2023/03/26 11:58:13;;;;;;;;;;;21.10;38.80;;;;;;5000522;28;19994;-73
2023/03/26 12:00:39;;;;;;;;;;;21.00;38.90;;;;;;5001415;28;20423;-73
2023/03/26 12:03:05;;;;;;;;;;;21.10;40.20;;;;;;5032173;27;19924;-73
2023/03/26 12:05:35;;;;;;;;;;;21.10;39.00;;;;;;5014959;28;19917;-74
2023/03/26 12:08:01;;;;;;;;;;;21.10;38.90;;;;;;5029119;28;19913;-74
2023/03/26 12:10:33;;;;;;;;;;;21.20;39.20;;;;;;5021521;28;20066;-73
2023/03/26 12:13:00;;;;;;;;;;;21.20;40.00;;;;;;5014501;28;20002;-74
2023/03/26 12:15:26;;;;;;;;;;;21.30;39.90;;;;;;5005349;28;20379;-75
2023/03/26 12:17:54;;;;;;;;;;;21.30;40.10;;;;;;5009134;28;19928;-76
2023/03/26 12:20:26;;;;;;;;;;;21.30;40.60;;;;;;5012519;28;19914;-76
2023/03/26 12:22:52;;;;;;;;;;;21.40;41.00;;;;;;5012302;28;19914;-75
2023/03/26 12:25:30;;;;;;;;;;;21.40;41.50;;;;;;5010820;28;20328;-76
2023/03/26 12:27:57;;;;;;;;;;;21.40;41.90;;;;;;5002244;28;20000;-75
2023/03/26 12:30:24;;;;;;;;;;;21.50;42.50;;;;;;5009148;28;19917;-75
2023/03/26 12:32:50;;;;;;;;;;;21.50;42.90;;;;;;5087584;27;19907;-76
2023/03/26 12:35:17;;;;;;;;;;;21.50;42.80;;;;;;5134510;27;19911;-76
2023/03/26 12:37:43;;;;;;;;;;;21.60;42.90;;;;;;5134282;27;19954;-76
2023/03/26 12:40:42;;;;;;;;;;;21.60;42.90;;;;;;5122897;27;20269;-76
2023/03/26 12:43:20;;;;;;;;;;;21.70;42.80;;;;;;4989863;28;20092;-76
2023/03/26 12:45:47;;;;;;;;;;;21.70;43.00;;;;;;5011292;28;19971;-75
2023/03/26 12:48:14;;;;;;;;;;;21.80;43.00;;;;;;5010937;28;19917;-76
2023/03/26 12:50:56;;;;;;;;;;;21.90;43.00;;;;;;5013669;28;19909;-75
2023/03/26 12:53:41;;;;;;;;;;;21.90;43.10;;;;;;5004080;28;19913;-75
2023/03/26 12:56:12;;;;;;;;;;;21.90;43.00;;;;;;5014652;28;19921;-76
2023/03/26 12:58:50;;;;;;;;;;;21.90;43.30;;;;;;5009804;28;19966;-76
2023/03/26 13:01:21;;;;;;;;;;;21.90;43.40;;;;;;5023286;28;19917;-77
2023/03/26 13:04:17;;;;;;;;;;;21.90;43.70;;;;;;5010271;28;20278;-76
2023/03/26 13:06:43;;;;;;;;;;;21.90;43.60;;;;;;5042435;28;19919;-75
2023/03/26 13:09:16;;;;;;;;;;;21.80;43.70;;;;;;5026302;28;19947;-76
2023/03/26 13:11:50;;;;;;;;;;;21.70;43.60;;;;;;5018307;28;19991;-74
2023/03/26 13:14:15;;;;;;;;;;;21.40;44.60;;;;;;5023560;28;19921;-74
2023/03/26 13:16:46;;;;;;;;;;;21.20;44.50;;;;;;5015885;28;19913;-73
2023/03/26 13:19:18;;;;;;;;;;;21.20;44.60;;;;;;5017648;27;20007;-75
2023/03/26 13:21:44;;;;;;;;;;;21.20;42.70;;;;;;5009389;28;19929;-75
2023/03/26 13:24:29;;;;;;;;;;;21.10;44.10;;;;;;5020929;28;19964;-73
2023/03/26 13:27:07;;;;;;;;;;;21.20;42.90;;;;;;5014250;28;19917;-76
2023/03/26 13:30:08;;;;;;;;;;;21.30;42.20;;;;;;5006538;28;19928;-72
2023/03/26 13:32:33;;;;;;;;;;;21.30;41.10;;;;;;4964332;28;20349;-75
2023/03/26 13:35:19;;;;;;;;;;;21.80;42.90;;;;;;5006801;28;19918;-75
2023/03/26 13:38:10;;;;;;;;;;;21.70;41.50;;;;;;5025023;28;19952;-74
2023/03/26 13:40:42;;;;;;;;;;;21.60;43.50;;;;;;5022902;28;20519;-75
2023/03/26 13:43:26;;;;;;;;;;;21.70;43.60;;;;;;5017642;28;20378;-76
2023/03/26 13:45:57;;;;;;;;;;;21.70;45.20;;;;;;5023026;28;19909;-74
2023/03/26 13:48:23;;;;;;;;;;;21.70;45.50;;;;;;5020885;28;19913;-75
2023/03/26 13:50:55;;;;;;;;;;;21.80;46.40;;;;;;5010707;28;19924;-76
2023/03/26 13:53:24;;;;;;;;;;;21.80;45.20;;;;;;5023912;28;19913;-75
2023/03/26 13:55:57;;;;;;;;;;;21.90;45.60;;;;;;5002581;28;19936;-73
2023/03/26 13:58:24;;;;;;;;;;;22.00;46.20;;;;;;5006848;28;19917;-76
2023/03/26 14:01:09;;;;;;;;;;;21.90;47.20;;;;;;5021690;28;19913;-74
2023/03/26 14:03:38;;;;;;;;;;;22.00;45.20;;;;;;5029092;28;19940;-75
2023/03/26 14:06:05;;;;;;;;;;;21.90;45.70;;;;;;5024866;28;19917;-75
2023/03/26 14:08:35;;;;;;;;;;;21.80;44.70;;;;;;5012864;28;19913;-76
2023/03/26 14:11:06;;;;;;;;;;;21.80;44.40;;;;;;4993309;28;19985;-76
2023/03/26 14:13:32;;;;;;;;;;;21.80;44.10;;;;;;5006535;28;20042;-74
2023/03/26 14:16:02;;;;;;;;;;;21.70;44.70;;;;;;5022252;28;20636;-76
2023/03/26 14:19:03;;;;;;;;;;;21.80;44.60;;;;;;5005438;28;21256;-75
2023/03/26 14:21:55;;;;;;;;;;;21.60;43.40;;;;;;5030579;28;20397;-75
2023/03/26 14:24:33;;;;;;;;;;;21.50;42.20;;;;;;5005188;28;20420;-75
2023/03/26 14:27:04;;;;;;;;;;;21.50;42.00;;;;;;5018421;28;20008;-75
2023/03/26 14:29:36;;;;;;;;;;;21.50;41.30;;;;;;5016562;28;19914;-74
2023/03/26 14:32:02;;;;;;;;;;;21.50;41.40;;;;;;5001603;28;19941;-75